หน้าหลัก
METAR-TAF:

METAR-TAF

ท่าอากาศยาน :

Phillip Goldston

Belize City, เบลีซ

ละติจูด: 17-32N, ลองจิจูด: 088-18W, ความสูง: 5 ม.

การสังเกตสภาพอากาศปัจจุบัน

รายงานได้ทำขึ้นเมื่อ 22 นาทีที่แล้ว ณ เวลา 18:00 UTC
ลม 10 นอตจากตะวันออก/ตะวันออกเฉียงเหนือ
อุณหภูมิ 30°C
ความชื้น 70%
ความกดอากาศ 1014 hPa
ทัศนวิสัย 10 กม. หรือมากกว่า
มีเมฆกระจายเป็นบางส่วนที่ความสูง 2700 ฟุต

METAR: MZBZ 151800Z 07010KT 9999 SCT027 30/24 A2996 Q1014 NOSIG

เวลา: 12:22 (18:22 UTC)

การพยากรณ์

รายงานได้ทำขึ้นเมื่อ 3 ชั่วโมงและ 22 นาทีที่แล้ว ณ เวลา 15:00 UTC
การพยากรณ์มีผลตั้งแต่วันที่ 15 ณ เวลา 18 UTC จนถึงวันที่ 16 ณ เวลา 18 UTC
ลม 8 นอตจากตะวันออก
ทัศนวิสัย 10 กม. หรือมากกว่า
มีเมฆกระจายเป็นบางส่วนที่ความสูง 2300 ฟุต

TAF: MZBZ 151500Z 1518/1618 08008KT 9999 SCT023

สังเกตการณ์สภาพอากาศและพยากรณ์อากาศของสนามบินมากกว่า 4000 แห่ง (รายงาน METAR และ TAF).

สถานีที่ดูได้จะแสดงไว้ด้วยจุดสีเหลืองและสีแดงบนแผนที่.

เลื่อนเมาส์ไปเหนือจุดเพื่อดูชื่อสถานี.

แล้วคลิกเพื่อดูสังเกตการณ์และการพยากรณ์สภาพอากาศ.

ในการเปลี่ยนแผนที่: คลิกที่ปุ่มสีเขียวที่มีกากบาทสีดำเพื่อซูมเข้า; ที่ปุ่มสีเขียวที่มีขีดเพื่อซูมออก; หรือที่ลูกศรสีเขียวเพื่อไปยังแผนที่ที่อยู่ติดกัน.


METAR-TAF: